Hauptseite
METAR-TAF:

METAR-TAF

Flughäfen :

Oseberg, Norwegen

Bohrplattform Norsk Hydro

Breite: 60-29-29N, Länge: 2-49-32E, Höhe: 158 m

Beobachtung

Neuester Wetterbericht von vor 25 Minuten, um 23:50 UTC
Wind 20 kt aus Nord
Temperatur 5°C
Luftfeuchtigkeit 75%
Luftdruck 1011 hPa
Sichtweite 10 km oder mehr
Durchbrochene Bewölkung in der Höhe von 2000 ft
Regenschauer, Reif oder Frostgraupel

METAR: ENOA 192350Z 35020KT 9999 -SHRAGS BKN020 05/01 Q1011 W///S5

Zeit: 01:15 (00:15 UTC)

Prognose

Gültige Prognose vom 20 um 00 UTC bis 20 um 24 UTC
Wind 20 kt aus Nord/Nordwest
Sichtweite 10 km oder mehr
Leicht bewölkt in der Höhe von 1500 ft, Towering cumulus.
Durchbrochene Bewölkung in der Höhe von 2500 ft
Regenschauer
Übergehend zu
vom 20 um 18 UTC bis 20 um 20 UTC
Wind 10 kt aus Nord/Nordost

TAF: ENOA 2000/2024 33020KT 9999 -SHRA FEW015TCU BKN025 BECMG 2018/2020 02010KT

Wetterbeobachtungen und Prognosen von mehr als 4000 Flughäfen (METAR und TAF Bericht).

Die verfügbaren Stationen werden durch gelbe und rote Markierungen auf der Karte dargestellt.

Führen Sie die Maus auf sie, um den Namen der Station zu sehen.

Darauf klicken, um die Beobachtung von Wetterbeobachtungen und Prognosen zu sehen.

Um die Karte zu ändern : klicken Sie auf den grünen Tasten mit einem schwarzen Kreuz Zum Vergrößern, auf den grünen Button mit einem Gedankenstrich zu verkleinern, oder auf die grünen Pfeile für benachbarte Karten.


METAR-TAF: